sensor_id;sensor_type;location;lat;lon;timestamp;pressure;altitude;pressure_sealevel;temperature;humidity
28935;BME280;16044;52.726;-2.108;2023-05-19T00:01:22;101777.78;;;13.82;75.18
28935;BME280;16044;52.726;-2.108;2023-05-19T00:03:53;101777.09;;;13.80;74.79
28935;BME280;16044;52.726;-2.108;2023-05-19T00:06:27;101783.56;;;13.79;74.89
28935;BME280;16044;52.726;-2.108;2023-05-19T00:09:00;101785.59;;;13.77;75.06
28935;BME280;16044;52.726;-2.108;2023-05-19T00:11:29;101785.25;;;13.72;75.29
28935;BME280;16044;52.726;-2.108;2023-05-19T00:13:58;101787.28;;;13.70;75.61
28935;BME280;16044;52.726;-2.108;2023-05-19T00:16:27;101787.47;;;13.69;75.66
28935;BME280;16044;52.726;-2.108;2023-05-19T00:18:59;101782.34;;;13.65;75.55
28935;BME280;16044;52.726;-2.108;2023-05-19T00:21:28;101787.47;;;13.69;75.32
28935;BME280;16044;52.726;-2.108;2023-05-19T00:23:57;101783.53;;;13.63;75.79
28935;BME280;16044;52.726;-2.108;2023-05-19T00:26:25;101785.22;;;13.64;75.72
28935;BME280;16044;52.726;-2.108;2023-05-19T00:28:52;101781.81;;;13.62;75.64
28935;BME280;16044;52.726;-2.108;2023-05-19T00:31:19;101786.41;;;13.61;75.74
28935;BME280;16044;52.726;-2.108;2023-05-19T00:33:47;101793.22;;;13.57;75.94
28935;BME280;16044;52.726;-2.108;2023-05-19T00:36:13;101785.53;;;13.53;76.05
28935;BME280;16044;52.726;-2.108;2023-05-19T00:38:40;101784.69;;;13.52;75.95
28935;BME280;16044;52.726;-2.108;2023-05-19T00:41:08;101782.97;;;13.51;75.93
28935;BME280;16044;52.726;-2.108;2023-05-19T00:43:35;101792.31;;;13.49;75.87
28935;BME280;16044;52.726;-2.108;2023-05-19T00:46:02;101775.44;;;13.45;76.20
28935;BME280;16044;52.726;-2.108;2023-05-19T00:48:29;101782.25;;;13.41;76.52
28935;BME280;16044;52.726;-2.108;2023-05-19T00:50:58;101787.69;;;13.41;76.38
28935;BME280;16044;52.726;-2.108;2023-05-19T00:53:33;101786.16;;;13.38;76.48
28935;BME280;16044;52.726;-2.108;2023-05-19T00:56:01;101783.75;;;13.35;76.71
28935;BME280;16044;52.726;-2.108;2023-05-19T00:58:30;101777.28;;;13.36;76.52
28935;BME280;16044;52.726;-2.108;2023-05-19T01:00:59;101777.63;;;13.33;77.11
28935;BME280;16044;52.726;-2.108;2023-05-19T01:03:32;101775.91;;;13.32;77.39
28935;BME280;16044;52.726;-2.108;2023-05-19T01:06:03;101770.63;;;13.31;77.26
28935;BME280;16044;52.726;-2.108;2023-05-19T01:08:31;101769.59;;;13.32;77.25
28935;BME280;16044;52.726;-2.108;2023-05-19T01:10:59;101775.22;;;13.30;77.42
28935;BME280;16044;52.726;-2.108;2023-05-19T01:13:27;101769.78;;;13.30;77.52
28935;BME280;16044;52.726;-2.108;2023-05-19T01:25:05;101780.59;;;13.22;78.22
28935;BME280;16044;52.726;-2.108;2023-05-19T01:30:43;101776.06;;;13.31;77.09
28935;BME280;16044;52.726;-2.108;2023-05-19T01:33:13;101778.25;;;13.27;77.96
28935;BME280;16044;52.726;-2.108;2023-05-19T01:35:41;101780.25;;;13.25;78.34
28935;BME280;16044;52.726;-2.108;2023-05-19T01:38:10;101766.59;;;13.17;78.58
28935;BME280;16044;52.726;-2.108;2023-05-19T01:40:39;101778.31;;;13.09;79.33
28935;BME280;16044;52.726;-2.108;2023-05-19T01:43:09;101775.28;;;13.12;78.99
28935;BME280;16044;52.726;-2.108;2023-05-19T01:45:39;101781.53;;;13.04;79.51
28935;BME280;16044;52.726;-2.108;2023-05-19T01:48:06;101776.25;;;13.03;79.77
28935;BME280;16044;52.726;-2.108;2023-05-19T01:50:36;101774.00;;;12.98;79.93
28935;BME280;16044;52.726;-2.108;2023-05-19T01:53:03;101778.44;;;12.99;79.84
28935;BME280;16044;52.726;-2.108;2023-05-19T01:55:31;101777.41;;;13.00;80.12
28935;BME280;16044;52.726;-2.108;2023-05-19T01:58:21;101775.66;;;12.91;80.63
28935;BME280;16044;52.726;-2.108;2023-05-19T02:04:00;101768.63;;;12.80;81.36
28935;BME280;16044;52.726;-2.108;2023-05-19T02:07:11;101773.91;;;12.82;81.37
28935;BME280;16044;52.726;-2.108;2023-05-19T02:12:37;101776.00;;;12.70;81.80
28935;BME280;16044;52.726;-2.108;2023-05-19T02:15:20;101771.50;;;12.79;81.44
28935;BME280;16044;52.726;-2.108;2023-05-19T02:17:50;101774.03;;;12.72;81.78
28935;BME280;16044;52.726;-2.108;2023-05-19T02:20:17;101773.63;;;12.67;82.24
28935;BME280;16044;52.726;-2.108;2023-05-19T02:22:44;101770.06;;;12.66;82.29
28935;BME280;16044;52.726;-2.108;2023-05-19T02:25:11;101769.03;;;12.67;81.41
28935;BME280;16044;52.726;-2.108;2023-05-19T02:27:38;101769.84;;;12.60;82.16
28935;BME280;16044;52.726;-2.108;2023-05-19T02:30:07;101776.13;;;12.60;81.96
28935;BME280;16044;52.726;-2.108;2023-05-19T02:32:35;101775.56;;;12.57;82.01
28935;BME280;16044;52.726;-2.108;2023-05-19T02:35:02;101781.72;;;12.59;81.90
28935;BME280;16044;52.726;-2.108;2023-05-19T02:37:30;101775.91;;;12.54;81.93
28935;BME280;16044;52.726;-2.108;2023-05-19T02:39:58;101771.09;;;12.47;82.27
28935;BME280;16044;52.726;-2.108;2023-05-19T02:42:25;101777.69;;;12.45;82.04
28935;BME280;16044;52.726;-2.108;2023-05-19T02:44:53;101773.09;;;12.45;82.18
28935;BME280;16044;52.726;-2.108;2023-05-19T02:47:20;101772.25;;;12.45;82.00
28935;BME280;16044;52.726;-2.108;2023-05-19T02:49:47;101778.66;;;12.36;82.78
28935;BME280;16044;52.726;-2.108;2023-05-19T02:52:14;101778.50;;;12.37;82.08
28935;BME280;16044;52.726;-2.108;2023-05-19T02:54:41;101783.38;;;12.34;82.06
28935;BME280;16044;52.726;-2.108;2023-05-19T02:57:08;101775.38;;;12.32;81.74
28935;BME280;16044;52.726;-2.108;2023-05-19T02:59:36;101788.75;;;12.25;81.95
28935;BME280;16044;52.726;-2.108;2023-05-19T03:02:03;101785.34;;;12.23;82.16
28935;BME280;16044;52.726;-2.108;2023-05-19T03:04:30;101789.06;;;12.22;81.90
28935;BME280;16044;52.726;-2.108;2023-05-19T03:06:57;101792.09;;;12.19;82.02
28935;BME280;16044;52.726;-2.108;2023-05-19T03:09:24;101795.13;;;12.16;81.86
28935;BME280;16044;52.726;-2.108;2023-05-19T03:11:52;101790.88;;;12.14;82.06
28935;BME280;16044;52.726;-2.108;2023-05-19T03:14:19;101791.72;;;12.14;81.73
28935;BME280;16044;52.726;-2.108;2023-05-19T03:16:49;101793.19;;;12.08;82.04
28935;BME280;16044;52.726;-2.108;2023-05-19T03:19:17;101795.22;;;12.06;82.40
28935;BME280;16044;52.726;-2.108;2023-05-19T03:21:44;101788.59;;;12.09;81.63
28935;BME280;16044;52.726;-2.108;2023-05-19T03:24:11;101783.09;;;12.01;82.24
28935;BME280;16044;52.726;-2.108;2023-05-19T03:26:38;101779.34;;;12.02;82.09
28935;BME280;16044;52.726;-2.108;2023-05-19T03:29:05;101783.78;;;12.03;81.89
28935;BME280;16044;52.726;-2.108;2023-05-19T03:31:32;101781.84;;;11.95;82.60
28935;BME280;16044;52.726;-2.108;2023-05-19T03:33:59;101782.41;;;11.99;81.98
28935;BME280;16044;52.726;-2.108;2023-05-19T03:36:26;101787.81;;;11.99;82.08
28935;BME280;16044;52.726;-2.108;2023-05-19T03:38:58;101784.97;;;12.00;81.66
28935;BME280;16044;52.726;-2.108;2023-05-19T03:41:24;101792.09;;;12.01;81.68
28935;BME280;16044;52.726;-2.108;2023-05-19T03:43:52;101794.25;;;11.98;82.04
28935;BME280;16044;52.726;-2.108;2023-05-19T03:46:19;101801.56;;;11.97;82.21
28935;BME280;16044;52.726;-2.108;2023-05-19T03:48:46;101793.00;;;11.92;82.85
28935;BME280;16044;52.726;-2.108;2023-05-19T03:51:13;101790.44;;;11.90;82.78
28935;BME280;16044;52.726;-2.108;2023-05-19T03:53:40;101784.72;;;11.94;82.41
28935;BME280;16044;52.726;-2.108;2023-05-19T03:56:08;101778.56;;;11.92;82.61
28935;BME280;16044;52.726;-2.108;2023-05-19T03:58:39;101770.69;;;11.88;82.68
28935;BME280;16044;52.726;-2.108;2023-05-19T04:01:10;101766.38;;;11.96;81.75
28935;BME280;16044;52.726;-2.108;2023-05-19T04:03:37;101767.00;;;11.89;82.36
28935;BME280;16044;52.726;-2.108;2023-05-19T04:06:04;101758.97;;;11.88;82.40
28935;BME280;16044;52.726;-2.108;2023-05-19T04:08:32;101754.13;;;11.92;82.21
28935;BME280;16044;52.726;-2.108;2023-05-19T04:10:59;101749.53;;;11.92;81.91
28935;BME280;16044;52.726;-2.108;2023-05-19T04:13:26;101746.25;;;11.88;82.42
28935;BME280;16044;52.726;-2.108;2023-05-19T04:15:53;101738.97;;;11.89;82.85
28935;BME280;16044;52.726;-2.108;2023-05-19T04:18:20;101728.41;;;11.86;82.98
28935;BME280;16044;52.726;-2.108;2023-05-19T04:20:47;101730.41;;;11.84;83.09
28935;BME280;16044;52.726;-2.108;2023-05-19T04:23:14;101730.72;;;11.81;83.64
28935;BME280;16044;52.726;-2.108;2023-05-19T04:25:41;101733.97;;;11.84;82.98
28935;BME280;16044;52.726;-2.108;2023-05-19T04:28:08;101753.00;;;11.84;82.92
28935;BME280;16044;52.726;-2.108;2023-05-19T04:30:35;101757.72;;;11.82;83.22
28935;BME280;16044;52.726;-2.108;2023-05-19T04:33:04;101766.88;;;11.81;83.50
28935;BME280;16044;52.726;-2.108;2023-05-19T04:35:31;101767.06;;;11.80;83.62
28935;BME280;16044;52.726;-2.108;2023-05-19T04:37:58;101770.06;;;11.77;83.94
28935;BME280;16044;52.726;-2.108;2023-05-19T04:40:26;101767.09;;;11.70;84.13
28935;BME280;16044;52.726;-2.108;2023-05-19T04:42:53;101760.66;;;11.71;84.05
28935;BME280;16044;52.726;-2.108;2023-05-19T04:45:20;101767.81;;;11.72;84.12
28935;BME280;16044;52.726;-2.108;2023-05-19T04:47:49;101759.66;;;11.72;83.85
28935;BME280;16044;52.726;-2.108;2023-05-19T04:50:16;101765.94;;;11.73;83.92
28935;BME280;16044;52.726;-2.108;2023-05-19T04:52:43;101766.09;;;11.71;84.09
28935;BME280;16044;52.726;-2.108;2023-05-19T04:55:13;101773.94;;;11.74;84.39
28935;BME280;16044;52.726;-2.108;2023-05-19T04:57:40;101767.09;;;11.70;84.39
28935;BME280;16044;52.726;-2.108;2023-05-19T05:00:08;101769.38;;;11.75;84.18
28935;BME280;16044;52.726;-2.108;2023-05-19T05:02:38;101771.22;;;11.74;84.68
28935;BME280;16044;52.726;-2.108;2023-05-19T05:05:07;101768.53;;;11.74;84.84
28935;BME280;16044;52.726;-2.108;2023-05-19T05:07:35;101773.63;;;11.77;84.27
28935;BME280;16044;52.726;-2.108;2023-05-19T05:10:02;101771.59;;;11.79;84.52
28935;BME280;16044;52.726;-2.108;2023-05-19T05:12:30;101771.59;;;11.79;84.85
28935;BME280;16044;52.726;-2.108;2023-05-19T05:14:58;101772.16;;;11.83;84.58
28935;BME280;16044;52.726;-2.108;2023-05-19T05:17:26;101780.59;;;11.89;84.40
28935;BME280;16044;52.726;-2.108;2023-05-19T05:19:54;101776.13;;;11.88;84.76
28935;BME280;16044;52.726;-2.108;2023-05-19T05:22:21;101778.44;;;11.93;84.44
28935;BME280;16044;52.726;-2.108;2023-05-19T05:24:48;101781.38;;;12.00;84.02
28935;BME280;16044;52.726;-2.108;2023-05-19T05:27:16;101782.25;;;12.00;83.88
28935;BME280;16044;52.726;-2.108;2023-05-19T05:29:43;101786.09;;;11.98;84.67
28935;BME280;16044;52.726;-2.108;2023-05-19T05:32:10;101788.53;;;12.01;84.12
28935;BME280;16044;52.726;-2.108;2023-05-19T05:34:37;101784.63;;;12.03;84.40
28935;BME280;16044;52.726;-2.108;2023-05-19T05:37:05;101786.66;;;12.01;85.23
28935;BME280;16044;52.726;-2.108;2023-05-19T05:39:32;101786.91;;;12.08;84.74
28935;BME280;16044;52.726;-2.108;2023-05-19T05:41:59;101786.69;;;12.19;84.06
28935;BME280;16044;52.726;-2.108;2023-05-19T05:44:26;101779.91;;;12.23;83.98
28935;BME280;16044;52.726;-2.108;2023-05-19T05:46:54;101783.38;;;12.34;83.55
28935;BME280;16044;52.726;-2.108;2023-05-19T05:49:21;101784.09;;;12.36;84.13
28935;BME280;16044;52.726;-2.108;2023-05-19T05:51:48;101795.41;;;12.49;83.66
28935;BME280;16044;52.726;-2.108;2023-05-19T05:54:32;101791.09;;;12.64;83.17
28935;BME280;16044;52.726;-2.108;2023-05-19T05:56:59;101800.34;;;12.72;83.02
28935;BME280;16044;52.726;-2.108;2023-05-19T05:59:28;101793.66;;;12.84;82.38
28935;BME280;16044;52.726;-2.108;2023-05-19T06:01:55;101794.00;;;12.89;82.48
28935;BME280;16044;52.726;-2.108;2023-05-19T06:04:22;101797.00;;;13.04;81.59
28935;BME280;16044;52.726;-2.108;2023-05-19T06:06:49;101792.47;;;13.13;81.47
28935;BME280;16044;52.726;-2.108;2023-05-19T06:09:18;101792.56;;;13.29;81.24
28935;BME280;16044;52.726;-2.108;2023-05-19T06:11:45;101799.28;;;13.43;80.38
28935;BME280;16044;52.726;-2.108;2023-05-19T06:14:12;101808.00;;;13.55;80.01
28935;BME280;16044;52.726;-2.108;2023-05-19T06:16:39;101815.00;;;13.57;80.06
28935;BME280;16044;52.726;-2.108;2023-05-19T06:19:06;101812.84;;;13.69;79.78
28935;BME280;16044;52.726;-2.108;2023-05-19T06:21:33;101811.47;;;13.73;79.91
28935;BME280;16044;52.726;-2.108;2023-05-19T06:24:00;101815.94;;;13.82;79.62
28935;BME280;16044;52.726;-2.108;2023-05-19T06:26:27;101803.00;;;13.84;79.48
28935;BME280;16044;52.726;-2.108;2023-05-19T06:28:54;101804.38;;;13.89;78.55
28935;BME280;16044;52.726;-2.108;2023-05-19T06:31:21;101819.72;;;13.90;78.55
28935;BME280;16044;52.726;-2.108;2023-05-19T06:33:48;101821.56;;;13.89;78.61
28935;BME280;16044;52.726;-2.108;2023-05-19T06:36:15;101816.31;;;13.88;78.16
28935;BME280;16044;52.726;-2.108;2023-05-19T06:38:42;101821.41;;;13.82;78.60
28935;BME280;16044;52.726;-2.108;2023-05-19T06:41:09;101824.28;;;13.81;78.63
28935;BME280;16044;52.726;-2.108;2023-05-19T06:43:36;101822.75;;;13.78;78.74
28935;BME280;16044;52.726;-2.108;2023-05-19T06:46:03;101826.00;;;13.82;78.66
28935;BME280;16044;52.726;-2.108;2023-05-19T06:48:30;101824.97;;;13.83;78.36
28935;BME280;16044;52.726;-2.108;2023-05-19T06:50:57;101824.66;;;13.86;78.09
28935;BME280;16044;52.726;-2.108;2023-05-19T06:53:24;101822.25;;;13.83;78.39
28935;BME280;16044;52.726;-2.108;2023-05-19T06:55:51;101827.53;;;13.84;78.65
28935;BME280;16044;52.726;-2.108;2023-05-19T06:58:24;101823.44;;;13.89;78.62
28935;BME280;16044;52.726;-2.108;2023-05-19T07:00:52;101824.28;;;13.89;78.04
28935;BME280;16044;52.726;-2.108;2023-05-19T07:03:19;101817.63;;;13.83;78.46
28935;BME280;16044;52.726;-2.108;2023-05-19T07:05:46;101814.97;;;13.92;78.17
28935;BME280;16044;52.726;-2.108;2023-05-19T07:08:13;101811.91;;;14.03;77.76
28935;BME280;16044;52.726;-2.108;2023-05-19T07:10:40;101817.22;;;14.13;78.16
28935;BME280;16044;52.726;-2.108;2023-05-19T07:13:07;101818.09;;;14.30;77.96
28935;BME280;16044;52.726;-2.108;2023-05-19T07:15:34;101807.34;;;14.53;78.21
28935;BME280;16044;52.726;-2.108;2023-05-19T07:18:01;101819.13;;;14.78;77.56
28935;BME280;16044;52.726;-2.108;2023-05-19T07:20:28;101814.72;;;14.93;76.36
28935;BME280;16044;52.726;-2.108;2023-05-19T07:22:55;101822.03;;;15.01;75.60
28935;BME280;16044;52.726;-2.108;2023-05-19T07:25:22;101823.72;;;15.02;75.15
28935;BME280;16044;52.726;-2.108;2023-05-19T07:27:49;101826.78;;;15.07;75.47
28935;BME280;16044;52.726;-2.108;2023-05-19T07:30:16;101830.72;;;15.13;75.52
28935;BME280;16044;52.726;-2.108;2023-05-19T07:32:43;101835.13;;;15.22;74.57
28935;BME280;16044;52.726;-2.108;2023-05-19T07:35:10;101822.81;;;15.26;74.46
28935;BME280;16044;52.726;-2.108;2023-05-19T07:37:37;101819.38;;;15.32;74.41
28935;BME280;16044;52.726;-2.108;2023-05-19T07:40:05;101824.13;;;15.38;74.07
28935;BME280;16044;52.726;-2.108;2023-05-19T07:42:33;101823.78;;;15.42;74.08
28935;BME280;16044;52.726;-2.108;2023-05-19T07:45:01;101817.28;;;15.51;73.95
28935;BME280;16044;52.726;-2.108;2023-05-19T07:47:29;101821.69;;;15.52;74.75
28935;BME280;16044;52.726;-2.108;2023-05-19T07:49:56;101818.56;;;15.71;73.99
28935;BME280;16044;52.726;-2.108;2023-05-19T07:52:23;101820.06;;;15.82;73.58
28935;BME280;16044;52.726;-2.108;2023-05-19T07:54:50;101817.78;;;15.94;73.47
28935;BME280;16044;52.726;-2.108;2023-05-19T07:57:18;101809.84;;;16.07;72.97
28935;BME280;16044;52.726;-2.108;2023-05-19T07:59:45;101819.94;;;16.30;72.79
28935;BME280;16044;52.726;-2.108;2023-05-19T08:02:12;101824.19;;;16.55;71.24
28935;BME280;16044;52.726;-2.108;2023-05-19T08:04:39;101829.97;;;16.84;70.55
28935;BME280;16044;52.726;-2.108;2023-05-19T08:07:07;101825.38;;;17.14;70.02
28935;BME280;16044;52.726;-2.108;2023-05-19T08:09:34;101830.34;;;17.33;67.70
28935;BME280;16044;52.726;-2.108;2023-05-19T08:12:01;101823.03;;;17.56;66.25
28935;BME280;16044;52.726;-2.108;2023-05-19T08:14:30;101827.84;;;17.53;65.22
28935;BME280;16044;52.726;-2.108;2023-05-19T08:16:58;101828.63;;;17.47;65.80
28935;BME280;16044;52.726;-2.108;2023-05-19T08:19:26;101826.16;;;17.52;65.33
28935;BME280;16044;52.726;-2.108;2023-05-19T08:21:53;101825.69;;;17.49;64.71
28935;BME280;16044;52.726;-2.108;2023-05-19T08:24:21;101825.50;;;17.36;65.25
28935;BME280;16044;52.726;-2.108;2023-05-19T08:26:48;101826.63;;;17.26;65.58
28935;BME280;16044;52.726;-2.108;2023-05-19T08:29:15;101832.41;;;17.17;66.29
28935;BME280;16044;52.726;-2.108;2023-05-19T08:31:42;101820.66;;;17.08;66.73
28935;BME280;16044;52.726;-2.108;2023-05-19T08:34:09;101823.69;;;17.13;67.06
28935;BME280;16044;52.726;-2.108;2023-05-19T08:36:36;101821.91;;;17.05;67.24
28935;BME280;16044;52.726;-2.108;2023-05-19T08:39:03;101822.84;;;16.98;67.86
28935;BME280;16044;52.726;-2.108;2023-05-19T08:41:31;101814.63;;;16.98;67.34
28935;BME280;16044;52.726;-2.108;2023-05-19T08:43:58;101814.41;;;16.84;67.82
28935;BME280;16044;52.726;-2.108;2023-05-19T08:46:25;101818.88;;;16.77;68.69
28935;BME280;16044;52.726;-2.108;2023-05-19T08:48:57;101820.97;;;16.75;69.29
28935;BME280;16044;52.726;-2.108;2023-05-19T08:51:38;101812.31;;;16.63;69.86
28935;BME280;16044;52.726;-2.108;2023-05-19T08:54:13;101812.56;;;16.53;70.45
28935;BME280;16044;52.726;-2.108;2023-05-19T08:56:44;101812.75;;;16.52;70.36
28935;BME280;16044;52.726;-2.108;2023-05-19T08:59:12;101817.56;;;16.50;70.58
28935;BME280;16044;52.726;-2.108;2023-05-19T09:01:44;101820.84;;;16.45;70.78
28935;BME280;16044;52.726;-2.108;2023-05-19T09:04:12;101811.97;;;16.43;70.97
28935;BME280;16044;52.726;-2.108;2023-05-19T09:06:39;101806.94;;;16.32;71.37
28935;BME280;16044;52.726;-2.108;2023-05-19T09:09:07;101811.50;;;16.16;72.37
28935;BME280;16044;52.726;-2.108;2023-05-19T09:11:34;101812.16;;;16.18;72.71
28935;BME280;16044;52.726;-2.108;2023-05-19T09:14:04;101802.31;;;16.09;73.12
28935;BME280;16044;52.726;-2.108;2023-05-19T09:16:32;101803.88;;;16.04;73.69
28935;BME280;16044;52.726;-2.108;2023-05-19T09:18:59;101809.53;;;16.02;74.03
28935;BME280;16044;52.726;-2.108;2023-05-19T09:21:28;101817.78;;;15.94;74.85
28935;BME280;16044;52.726;-2.108;2023-05-19T09:24:04;101811.00;;;15.82;75.45
28935;BME280;16044;52.726;-2.108;2023-05-19T09:26:41;101811.34;;;15.87;76.04
28935;BME280;16044;52.726;-2.108;2023-05-19T09:29:15;101813.34;;;15.93;76.25
28935;BME280;16044;52.726;-2.108;2023-05-19T09:31:51;101795.41;;;15.90;77.13
28935;BME280;16044;52.726;-2.108;2023-05-19T09:34:21;101807.88;;;15.93;78.20
28935;BME280;16044;52.726;-2.108;2023-05-19T09:36:50;101806.47;;;15.97;77.38
28935;BME280;16044;52.726;-2.108;2023-05-19T09:39:23;101806.78;;;16.02;77.78
28935;BME280;16044;52.726;-2.108;2023-05-19T09:41:54;101810.50;;;15.86;78.74
28935;BME280;16044;52.726;-2.108;2023-05-19T09:44:25;101805.28;;;16.00;77.76
28935;BME280;16044;52.726;-2.108;2023-05-19T09:46:56;101806.69;;;15.87;79.49
28935;BME280;16044;52.726;-2.108;2023-05-19T09:49:28;101807.28;;;15.74;82.79
28935;BME280;16044;52.726;-2.108;2023-05-19T09:51:57;101819.22;;;15.82;82.78
28935;BME280;16044;52.726;-2.108;2023-05-19T09:54:25;101813.75;;;15.82;83.22
28935;BME280;16044;52.726;-2.108;2023-05-19T09:56:59;101817.56;;;15.64;84.54
28935;BME280;16044;52.726;-2.108;2023-05-19T09:59:28;101814.47;;;15.67;85.45
28935;BME280;16044;52.726;-2.108;2023-05-19T10:02:00;101815.84;;;15.63;85.43
28935;BME280;16044;52.726;-2.108;2023-05-19T10:04:29;101814.16;;;15.62;85.74
28935;BME280;16044;52.726;-2.108;2023-05-19T10:06:57;101818.28;;;15.58;86.11
28935;BME280;16044;52.726;-2.108;2023-05-19T10:09:31;101811.47;;;15.54;86.93
28935;BME280;16044;52.726;-2.108;2023-05-19T10:12:00;101818.63;;;15.55;87.06
28935;BME280;16044;52.726;-2.108;2023-05-19T10:14:28;101807.56;;;15.48;88.00
28935;BME280;16044;52.726;-2.108;2023-05-19T10:16:57;101810.59;;;15.53;88.25
28935;BME280;16044;52.726;-2.108;2023-05-19T10:19:28;101805.00;;;15.47;88.86
28935;BME280;16044;52.726;-2.108;2023-05-19T10:21:56;101807.69;;;15.55;89.01
28935;BME280;16044;52.726;-2.108;2023-05-19T10:24:23;101805.00;;;15.47;90.20
28935;BME280;16044;52.726;-2.108;2023-05-19T10:27:10;101811.16;;;15.40;92.49
28935;BME280;16044;52.726;-2.108;2023-05-19T10:29:44;101810.06;;;15.58;90.80
28935;BME280;16044;52.726;-2.108;2023-05-19T10:32:21;101807.84;;;15.53;90.93
28935;BME280;16044;52.726;-2.108;2023-05-19T10:40:27;101809.41;;;15.56;91.73
28935;BME280;16044;52.726;-2.108;2023-05-19T10:45:53;101804.09;;;15.54;91.95
28935;BME280;16044;52.726;-2.108;2023-05-19T10:48:21;101806.84;;;15.46;93.41
28935;BME280;16044;52.726;-2.108;2023-05-19T10:50:53;101806.69;;;15.48;93.37
28935;BME280;16044;52.726;-2.108;2023-05-19T10:53:20;101815.03;;;15.54;92.71
28935;BME280;16044;52.726;-2.108;2023-05-19T10:55:53;101809.41;;;15.48;92.43
28935;BME280;16044;52.726;-2.108;2023-05-19T11:03:51;101818.66;;;15.38;92.03
28935;BME280;16044;52.726;-2.108;2023-05-19T11:12:02;101817.69;;;15.23;93.17
28935;BME280;16044;52.726;-2.108;2023-05-19T11:14:31;101819.59;;;15.23;93.16
28935;BME280;16044;52.726;-2.108;2023-05-19T11:16:58;101827.94;;;15.21;93.19
28935;BME280;16044;52.726;-2.108;2023-05-19T11:19:28;101831.72;;;15.20;93.88
28935;BME280;16044;52.726;-2.108;2023-05-19T11:22:06;101825.88;;;15.23;94.52
28935;BME280;16044;52.726;-2.108;2023-05-19T11:24:35;101831.00;;;15.26;94.64
28935;BME280;16044;52.726;-2.108;2023-05-19T11:27:18;101838.03;;;15.20;95.90
28935;BME280;16044;52.726;-2.108;2023-05-19T11:29:47;101830.31;;;15.32;94.92
28935;BME280;16044;52.726;-2.108;2023-05-19T11:32:14;101829.97;;;15.27;94.40
28935;BME280;16044;52.726;-2.108;2023-05-19T11:34:43;101834.78;;;15.17;94.53
28935;BME280;16044;52.726;-2.108;2023-05-19T11:37:11;101832.41;;;15.14;94.47
28935;BME280;16044;52.726;-2.108;2023-05-19T11:39:39;101836.00;;;15.06;96.00
28935;BME280;16044;52.726;-2.108;2023-05-19T11:42:09;101831.41;;;15.07;95.66
28935;BME280;16044;52.726;-2.108;2023-05-19T11:44:37;101833.63;;;14.95;96.23
28935;BME280;16044;52.726;-2.108;2023-05-19T11:47:04;101827.84;;;14.90;96.70
28935;BME280;16044;52.726;-2.108;2023-05-19T11:49:32;101824.25;;;14.89;96.15
28935;BME280;16044;52.726;-2.108;2023-05-19T11:51:59;101832.28;;;14.91;95.85
28935;BME280;16044;52.726;-2.108;2023-05-19T11:54:28;101825.63;;;14.85;96.33
28935;BME280;16044;52.726;-2.108;2023-05-19T11:57:02;101828.50;;;14.84;96.32
28935;BME280;16044;52.726;-2.108;2023-05-19T11:59:34;101829.88;;;14.79;97.07
28935;BME280;16044;52.726;-2.108;2023-05-19T12:04:51;101829.72;;;14.81;96.61
28935;BME280;16044;52.726;-2.108;2023-05-19T12:07:22;101828.19;;;14.78;96.30
28935;BME280;16044;52.726;-2.108;2023-05-19T12:09:50;101830.06;;;14.78;96.31
28935;BME280;16044;52.726;-2.108;2023-05-19T12:12:19;101834.84;;;14.76;96.37
28935;BME280;16044;52.726;-2.108;2023-05-19T12:14:49;101830.06;;;14.70;97.43
28935;BME280;16044;52.726;-2.108;2023-05-19T12:17:19;101836.56;;;14.77;97.09
28935;BME280;16044;52.726;-2.108;2023-05-19T12:19:47;101842.19;;;14.75;97.87
28935;BME280;16044;52.726;-2.108;2023-05-19T12:22:16;101838.91;;;14.80;98.11
28935;BME280;16044;52.726;-2.108;2023-05-19T12:24:44;101839.97;;;14.79;99.78
28935;BME280;16044;52.726;-2.108;2023-05-19T12:27:16;101827.66;;;14.91;98.64
28935;BME280;16044;52.726;-2.108;2023-05-19T12:29:49;101825.78;;;15.00;98.57
28935;BME280;16044;52.726;-2.108;2023-05-19T12:32:22;101827.31;;;15.11;97.62
28935;BME280;16044;52.726;-2.108;2023-05-19T12:34:56;101823.19;;;15.15;97.21
28935;BME280;16044;52.726;-2.108;2023-05-19T12:37:51;101816.50;;;15.26;96.67
28935;BME280;16044;52.726;-2.108;2023-05-19T12:40:18;101822.28;;;15.31;97.19
28935;BME280;16044;52.726;-2.108;2023-05-19T12:42:45;101815.44;;;15.43;96.86
28935;BME280;16044;52.726;-2.108;2023-05-19T12:45:14;101805.50;;;15.50;95.48
28935;BME280;16044;52.726;-2.108;2023-05-19T12:47:46;101813.88;;;15.49;96.37
28935;BME280;16044;52.726;-2.108;2023-05-19T12:50:14;101816.84;;;15.70;96.04
28935;BME280;16044;52.726;-2.108;2023-05-19T12:52:45;101814.41;;;15.84;96.08
28935;BME280;16044;52.726;-2.108;2023-05-19T12:55:14;101807.13;;;15.99;96.18
28935;BME280;16044;52.726;-2.108;2023-05-19T12:57:43;101802.63;;;16.14;94.43
28935;BME280;16044;52.726;-2.108;2023-05-19T13:00:17;101801.72;;;16.22;92.98
28935;BME280;16044;52.726;-2.108;2023-05-19T13:05:36;101799.63;;;16.47;88.91
28935;BME280;16044;52.726;-2.108;2023-05-19T13:08:15;101787.75;;;16.55;89.46
28935;BME280;16044;52.726;-2.108;2023-05-19T13:10:45;101790.63;;;16.76;88.48
28935;BME280;16044;52.726;-2.108;2023-05-19T13:13:12;101792.41;;;16.92;87.78
28935;BME280;16044;52.726;-2.108;2023-05-19T13:15:41;101790.63;;;17.00;88.29
28935;BME280;16044;52.726;-2.108;2023-05-19T13:18:11;101793.56;;;17.13;88.51
28935;BME280;16044;52.726;-2.108;2023-05-19T13:20:40;101788.09;;;17.28;89.57
28935;BME280;16044;52.726;-2.108;2023-05-19T13:23:09;101784.41;;;17.36;86.80
28935;BME280;16044;52.726;-2.108;2023-05-19T13:25:37;101777.31;;;17.41;86.16
28935;BME280;16044;52.726;-2.108;2023-05-19T13:28:04;101788.44;;;17.40;86.51
28935;BME280;16044;52.726;-2.108;2023-05-19T13:30:33;101779.38;;;17.39;83.78
28935;BME280;16044;52.726;-2.108;2023-05-19T13:33:01;101791.00;;;17.26;83.14